sensor_id;sensor_type;location;lat;lon;timestamp;P1;durP1;ratioP1;P2;durP2;ratioP2
6105;SDS011;3083;51.508;7.966;2023-06-22T00:00:10;21.60;;;14.33;;
6105;SDS011;3083;51.508;7.966;2023-06-22T00:02:39;18.23;;;14.23;;
6105;SDS011;3083;51.508;7.966;2023-06-22T00:05:06;20.77;;;14.90;;
6105;SDS011;3083;51.508;7.966;2023-06-22T00:07:33;18.73;;;13.93;;
6105;SDS011;3083;51.508;7.966;2023-06-22T00:10:00;17.93;;;14.47;;
6105;SDS011;3083;51.508;7.966;2023-06-22T00:12:27;18.67;;;15.43;;
6105;SDS011;3083;51.508;7.966;2023-06-22T00:14:53;20.33;;;15.13;;
6105;SDS011;3083;51.508;7.966;2023-06-22T00:17:20;19.37;;;14.60;;
6105;SDS011;3083;51.508;7.966;2023-06-22T00:19:48;19.33;;;14.50;;
6105;SDS011;3083;51.508;7.966;2023-06-22T00:22:18;20.63;;;14.70;;
6105;SDS011;3083;51.508;7.966;2023-06-22T00:24:53;17.20;;;13.40;;
6105;SDS011;3083;51.508;7.966;2023-06-22T00:27:21;19.60;;;14.70;;
6105;SDS011;3083;51.508;7.966;2023-06-22T00:29:47;19.30;;;15.53;;
6105;SDS011;3083;51.508;7.966;2023-06-22T00:32:14;16.77;;;14.33;;
6105;SDS011;3083;51.508;7.966;2023-06-22T00:34:42;18.30;;;14.23;;
6105;SDS011;3083;51.508;7.966;2023-06-22T00:37:10;18.67;;;14.70;;
6105;SDS011;3083;51.508;7.966;2023-06-22T00:39:37;18.17;;;14.70;;
6105;SDS011;3083;51.508;7.966;2023-06-22T00:42:04;21.50;;;14.47;;
6105;SDS011;3083;51.508;7.966;2023-06-22T00:44:31;19.20;;;14.67;;
6105;SDS011;3083;51.508;7.966;2023-06-22T00:46:58;22.00;;;15.30;;
6105;SDS011;3083;51.508;7.966;2023-06-22T00:49:26;23.17;;;15.53;;
6105;SDS011;3083;51.508;7.966;2023-06-22T00:51:53;19.17;;;14.30;;
6105;SDS011;3083;51.508;7.966;2023-06-22T00:54:21;19.80;;;14.33;;
6105;SDS011;3083;51.508;7.966;2023-06-22T00:56:49;18.80;;;14.77;;
6105;SDS011;3083;51.508;7.966;2023-06-22T00:59:17;20.23;;;15.00;;
6105;SDS011;3083;51.508;7.966;2023-06-22T01:01:44;16.53;;;13.60;;
6105;SDS011;3083;51.508;7.966;2023-06-22T01:04:11;16.13;;;13.83;;
6105;SDS011;3083;51.508;7.966;2023-06-22T01:06:41;18.70;;;14.87;;
6105;SDS011;3083;51.508;7.966;2023-06-22T01:09:19;18.30;;;14.20;;
6105;SDS011;3083;51.508;7.966;2023-06-22T01:11:57;17.93;;;13.43;;
6105;SDS011;3083;51.508;7.966;2023-06-22T01:14:27;17.60;;;13.90;;
6105;SDS011;3083;51.508;7.966;2023-06-22T01:17:03;22.63;;;14.70;;
6105;SDS011;3083;51.508;7.966;2023-06-22T01:19:35;18.23;;;14.73;;
6105;SDS011;3083;51.508;7.966;2023-06-22T01:22:09;18.77;;;14.47;;
6105;SDS011;3083;51.508;7.966;2023-06-22T01:24:44;19.30;;;15.07;;
6105;SDS011;3083;51.508;7.966;2023-06-22T01:27:23;17.47;;;14.80;;
6105;SDS011;3083;51.508;7.966;2023-06-22T01:30:07;17.33;;;14.20;;
6105;SDS011;3083;51.508;7.966;2023-06-22T01:32:37;18.27;;;14.60;;
6105;SDS011;3083;51.508;7.966;2023-06-22T01:35:05;21.00;;;15.30;;
6105;SDS011;3083;51.508;7.966;2023-06-22T01:37:34;21.83;;;15.73;;
6105;SDS011;3083;51.508;7.966;2023-06-22T01:40:04;19.10;;;15.47;;
6105;SDS011;3083;51.508;7.966;2023-06-22T01:42:32;20.83;;;14.90;;
6105;SDS011;3083;51.508;7.966;2023-06-22T01:44:59;20.63;;;13.90;;
6105;SDS011;3083;51.508;7.966;2023-06-22T01:47:28;23.30;;;14.00;;
6105;SDS011;3083;51.508;7.966;2023-06-22T01:49:56;18.30;;;13.70;;
6105;SDS011;3083;51.508;7.966;2023-06-22T01:52:23;24.30;;;14.93;;
6105;SDS011;3083;51.508;7.966;2023-06-22T01:54:50;30.00;;;14.90;;
6105;SDS011;3083;51.508;7.966;2023-06-22T01:57:16;19.13;;;14.80;;
6105;SDS011;3083;51.508;7.966;2023-06-22T01:59:45;20.73;;;14.43;;
6105;SDS011;3083;51.508;7.966;2023-06-22T02:02:19;22.23;;;16.13;;
6105;SDS011;3083;51.508;7.966;2023-06-22T02:04:54;19.90;;;14.67;;
6105;SDS011;3083;51.508;7.966;2023-06-22T02:07:23;27.37;;;15.67;;
6105;SDS011;3083;51.508;7.966;2023-06-22T02:09:57;23.27;;;15.80;;
6105;SDS011;3083;51.508;7.966;2023-06-22T02:12:25;19.87;;;14.80;;
6105;SDS011;3083;51.508;7.966;2023-06-22T02:14:54;21.20;;;15.90;;
6105;SDS011;3083;51.508;7.966;2023-06-22T02:17:21;20.17;;;16.27;;
6105;SDS011;3083;51.508;7.966;2023-06-22T02:19:49;21.83;;;15.47;;
6105;SDS011;3083;51.508;7.966;2023-06-22T02:22:18;22.10;;;15.80;;
6105;SDS011;3083;51.508;7.966;2023-06-22T02:24:44;22.63;;;15.90;;
6105;SDS011;3083;51.508;7.966;2023-06-22T02:27:11;23.87;;;15.37;;
6105;SDS011;3083;51.508;7.966;2023-06-22T02:29:38;21.33;;;14.47;;
6105;SDS011;3083;51.508;7.966;2023-06-22T02:32:05;19.80;;;15.03;;
6105;SDS011;3083;51.508;7.966;2023-06-22T02:34:32;26.80;;;14.73;;
6105;SDS011;3083;51.508;7.966;2023-06-22T02:36:59;21.50;;;15.73;;
6105;SDS011;3083;51.508;7.966;2023-06-22T02:39:29;24.83;;;15.93;;
6105;SDS011;3083;51.508;7.966;2023-06-22T02:41:55;19.53;;;14.33;;
6105;SDS011;3083;51.508;7.966;2023-06-22T02:44:22;25.43;;;16.13;;
6105;SDS011;3083;51.508;7.966;2023-06-22T02:46:49;22.80;;;15.97;;
6105;SDS011;3083;51.508;7.966;2023-06-22T02:49:16;22.90;;;16.03;;
6105;SDS011;3083;51.508;7.966;2023-06-22T02:51:45;20.20;;;14.90;;
6105;SDS011;3083;51.508;7.966;2023-06-22T02:54:12;25.80;;;15.40;;
6105;SDS011;3083;51.508;7.966;2023-06-22T02:56:41;23.63;;;16.07;;
6105;SDS011;3083;51.508;7.966;2023-06-22T02:59:08;20.67;;;16.10;;
6105;SDS011;3083;51.508;7.966;2023-06-22T03:01:36;22.00;;;15.57;;
6105;SDS011;3083;51.508;7.966;2023-06-22T03:04:05;22.37;;;16.00;;
6105;SDS011;3083;51.508;7.966;2023-06-22T03:06:32;23.20;;;16.60;;
6105;SDS011;3083;51.508;7.966;2023-06-22T03:08:59;19.83;;;15.40;;
6105;SDS011;3083;51.508;7.966;2023-06-22T03:11:29;23.07;;;15.80;;
6105;SDS011;3083;51.508;7.966;2023-06-22T03:13:57;21.70;;;16.00;;
6105;SDS011;3083;51.508;7.966;2023-06-22T03:16:24;28.83;;;16.40;;
6105;SDS011;3083;51.508;7.966;2023-06-22T03:18:51;21.27;;;15.73;;
6105;SDS011;3083;51.508;7.966;2023-06-22T03:21:19;24.80;;;16.40;;
6105;SDS011;3083;51.508;7.966;2023-06-22T03:23:48;21.00;;;16.10;;
6105;SDS011;3083;51.508;7.966;2023-06-22T03:26:16;22.40;;;16.60;;
6105;SDS011;3083;51.508;7.966;2023-06-22T03:28:43;23.83;;;16.50;;
6105;SDS011;3083;51.508;7.966;2023-06-22T03:31:11;22.87;;;16.57;;
6105;SDS011;3083;51.508;7.966;2023-06-22T03:33:38;24.50;;;18.00;;
6105;SDS011;3083;51.508;7.966;2023-06-22T03:36:05;26.30;;;17.17;;
6105;SDS011;3083;51.508;7.966;2023-06-22T03:38:32;28.50;;;17.93;;
6105;SDS011;3083;51.508;7.966;2023-06-22T03:40:59;30.70;;;17.80;;
6105;SDS011;3083;51.508;7.966;2023-06-22T03:43:26;27.43;;;17.43;;
6105;SDS011;3083;51.508;7.966;2023-06-22T03:45:52;26.53;;;16.93;;
6105;SDS011;3083;51.508;7.966;2023-06-22T03:48:21;25.70;;;16.53;;
6105;SDS011;3083;51.508;7.966;2023-06-22T03:50:47;23.73;;;16.03;;
6105;SDS011;3083;51.508;7.966;2023-06-22T03:53:14;23.20;;;17.60;;
6105;SDS011;3083;51.508;7.966;2023-06-22T03:55:47;23.90;;;18.47;;
6105;SDS011;3083;51.508;7.966;2023-06-22T03:58:16;24.17;;;17.50;;
6105;SDS011;3083;51.508;7.966;2023-06-22T04:00:44;23.77;;;17.20;;
6105;SDS011;3083;51.508;7.966;2023-06-22T04:03:11;23.80;;;16.20;;
6105;SDS011;3083;51.508;7.966;2023-06-22T04:05:40;33.47;;;16.47;;
6105;SDS011;3083;51.508;7.966;2023-06-22T04:08:07;23.20;;;16.27;;
6105;SDS011;3083;51.508;7.966;2023-06-22T04:10:34;24.20;;;15.50;;
6105;SDS011;3083;51.508;7.966;2023-06-22T04:13:01;27.20;;;15.63;;
6105;SDS011;3083;51.508;7.966;2023-06-22T04:15:28;25.00;;;16.20;;
6105;SDS011;3083;51.508;7.966;2023-06-22T04:17:55;24.10;;;16.17;;
6105;SDS011;3083;51.508;7.966;2023-06-22T04:20:22;27.47;;;16.40;;
6105;SDS011;3083;51.508;7.966;2023-06-22T04:22:52;28.33;;;16.07;;
6105;SDS011;3083;51.508;7.966;2023-06-22T04:25:19;25.77;;;16.17;;
6105;SDS011;3083;51.508;7.966;2023-06-22T04:27:46;26.10;;;16.17;;
6105;SDS011;3083;51.508;7.966;2023-06-22T04:30:13;26.37;;;15.63;;
6105;SDS011;3083;51.508;7.966;2023-06-22T04:32:41;28.40;;;16.30;;
6105;SDS011;3083;51.508;7.966;2023-06-22T04:35:09;23.60;;;15.47;;
6105;SDS011;3083;51.508;7.966;2023-06-22T04:37:36;30.87;;;17.73;;
6105;SDS011;3083;51.508;7.966;2023-06-22T04:40:04;25.33;;;16.07;;
6105;SDS011;3083;51.508;7.966;2023-06-22T04:42:33;25.50;;;16.43;;
6105;SDS011;3083;51.508;7.966;2023-06-22T04:45:01;22.63;;;15.70;;
6105;SDS011;3083;51.508;7.966;2023-06-22T04:47:28;28.20;;;15.77;;
6105;SDS011;3083;51.508;7.966;2023-06-22T04:49:55;23.17;;;15.80;;
6105;SDS011;3083;51.508;7.966;2023-06-22T04:52:21;22.33;;;15.93;;
6105;SDS011;3083;51.508;7.966;2023-06-22T04:54:49;21.50;;;16.00;;
6105;SDS011;3083;51.508;7.966;2023-06-22T04:57:22;22.40;;;15.23;;
6105;SDS011;3083;51.508;7.966;2023-06-22T04:59:55;22.37;;;16.80;;
6105;SDS011;3083;51.508;7.966;2023-06-22T05:02:22;21.20;;;16.37;;
6105;SDS011;3083;51.508;7.966;2023-06-22T05:04:57;22.07;;;16.37;;
6105;SDS011;3083;51.508;7.966;2023-06-22T05:07:24;22.40;;;16.80;;
6105;SDS011;3083;51.508;7.966;2023-06-22T05:09:51;23.60;;;17.40;;
6105;SDS011;3083;51.508;7.966;2023-06-22T05:12:18;22.67;;;17.53;;
6105;SDS011;3083;51.508;7.966;2023-06-22T05:14:46;25.87;;;17.87;;
6105;SDS011;3083;51.508;7.966;2023-06-22T05:17:13;29.40;;;20.97;;
6105;SDS011;3083;51.508;7.966;2023-06-22T05:19:44;21.17;;;17.47;;
6105;SDS011;3083;51.508;7.966;2023-06-22T05:22:14;30.10;;;19.27;;
6105;SDS011;3083;51.508;7.966;2023-06-22T05:24:41;26.37;;;18.53;;
6105;SDS011;3083;51.508;7.966;2023-06-22T05:27:08;28.47;;;19.10;;
6105;SDS011;3083;51.508;7.966;2023-06-22T05:29:35;29.27;;;20.90;;
6105;SDS011;3083;51.508;7.966;2023-06-22T05:32:04;31.00;;;19.77;;
6105;SDS011;3083;51.508;7.966;2023-06-22T05:34:31;28.27;;;19.63;;
6105;SDS011;3083;51.508;7.966;2023-06-22T05:36:58;29.03;;;20.63;;
6105;SDS011;3083;51.508;7.966;2023-06-22T05:39:25;25.80;;;20.10;;
6105;SDS011;3083;51.508;7.966;2023-06-22T05:41:52;28.60;;;20.47;;
6105;SDS011;3083;51.508;7.966;2023-06-22T05:44:19;27.17;;;20.00;;
6105;SDS011;3083;51.508;7.966;2023-06-22T05:46:46;31.70;;;21.40;;
6105;SDS011;3083;51.508;7.966;2023-06-22T05:49:14;37.57;;;21.27;;
6105;SDS011;3083;51.508;7.966;2023-06-22T05:51:42;30.57;;;22.00;;
6105;SDS011;3083;51.508;7.966;2023-06-22T05:54:09;35.53;;;24.40;;
6105;SDS011;3083;51.508;7.966;2023-06-22T05:56:38;34.13;;;22.97;;
6105;SDS011;3083;51.508;7.966;2023-06-22T05:59:05;34.43;;;24.50;;
6105;SDS011;3083;51.508;7.966;2023-06-22T06:01:32;32.40;;;23.40;;
6105;SDS011;3083;51.508;7.966;2023-06-22T06:04:00;30.40;;;23.90;;
6105;SDS011;3083;51.508;7.966;2023-06-22T06:06:30;32.07;;;22.47;;
6105;SDS011;3083;51.508;7.966;2023-06-22T06:08:57;29.37;;;20.70;;
6105;SDS011;3083;51.508;7.966;2023-06-22T06:11:24;31.30;;;23.07;;
6105;SDS011;3083;51.508;7.966;2023-06-22T06:13:52;32.23;;;23.60;;
6105;SDS011;3083;51.508;7.966;2023-06-22T06:16:19;34.63;;;23.90;;
6105;SDS011;3083;51.508;7.966;2023-06-22T06:18:45;36.90;;;27.23;;
6105;SDS011;3083;51.508;7.966;2023-06-22T06:21:13;32.23;;;23.10;;
6105;SDS011;3083;51.508;7.966;2023-06-22T06:23:41;31.90;;;22.37;;
6105;SDS011;3083;51.508;7.966;2023-06-22T06:26:08;35.23;;;23.73;;
6105;SDS011;3083;51.508;7.966;2023-06-22T06:28:35;27.43;;;21.30;;
6105;SDS011;3083;51.508;7.966;2023-06-22T06:31:02;26.60;;;20.90;;
6105;SDS011;3083;51.508;7.966;2023-06-22T06:33:32;29.37;;;21.10;;
6105;SDS011;3083;51.508;7.966;2023-06-22T06:35:58;27.30;;;21.40;;
6105;SDS011;3083;51.508;7.966;2023-06-22T06:38:28;27.77;;;22.00;;
6105;SDS011;3083;51.508;7.966;2023-06-22T06:40:56;25.90;;;20.83;;
6105;SDS011;3083;51.508;7.966;2023-06-22T06:43:24;28.70;;;21.30;;
6105;SDS011;3083;51.508;7.966;2023-06-22T06:45:50;28.23;;;22.00;;
6105;SDS011;3083;51.508;7.966;2023-06-22T06:48:17;36.03;;;23.60;;
6105;SDS011;3083;51.508;7.966;2023-06-22T06:50:44;33.17;;;23.90;;
6105;SDS011;3083;51.508;7.966;2023-06-22T06:53:11;33.23;;;23.10;;
6105;SDS011;3083;51.508;7.966;2023-06-22T06:55:38;29.57;;;22.80;;
6105;SDS011;3083;51.508;7.966;2023-06-22T06:58:06;26.97;;;21.17;;
6105;SDS011;3083;51.508;7.966;2023-06-22T07:00:34;28.83;;;20.30;;
6105;SDS011;3083;51.508;7.966;2023-06-22T07:03:02;27.90;;;20.87;;
6105;SDS011;3083;51.508;7.966;2023-06-22T07:05:28;27.57;;;20.83;;
6105;SDS011;3083;51.508;7.966;2023-06-22T07:07:55;27.40;;;21.40;;
6105;SDS011;3083;51.508;7.966;2023-06-22T07:10:22;26.57;;;20.10;;
6105;SDS011;3083;51.508;7.966;2023-06-22T07:12:49;23.87;;;18.53;;
6105;SDS011;3083;51.508;7.966;2023-06-22T07:15:17;24.47;;;19.40;;
6105;SDS011;3083;51.508;7.966;2023-06-22T07:17:44;23.20;;;18.37;;
6105;SDS011;3083;51.508;7.966;2023-06-22T07:20:11;21.20;;;16.83;;
6105;SDS011;3083;51.508;7.966;2023-06-22T07:22:38;22.43;;;16.90;;
6105;SDS011;3083;51.508;7.966;2023-06-22T07:25:06;20.00;;;16.30;;
6105;SDS011;3083;51.508;7.966;2023-06-22T07:27:35;21.00;;;17.40;;
6105;SDS011;3083;51.508;7.966;2023-06-22T07:30:04;24.93;;;19.87;;
6105;SDS011;3083;51.508;7.966;2023-06-22T07:32:33;26.47;;;20.90;;
6105;SDS011;3083;51.508;7.966;2023-06-22T07:35:00;24.53;;;20.73;;
6105;SDS011;3083;51.508;7.966;2023-06-22T07:37:27;24.87;;;21.23;;
6105;SDS011;3083;51.508;7.966;2023-06-22T07:39:54;26.73;;;21.43;;
6105;SDS011;3083;51.508;7.966;2023-06-22T07:42:23;26.57;;;20.17;;
6105;SDS011;3083;51.508;7.966;2023-06-22T07:44:50;26.83;;;20.43;;
6105;SDS011;3083;51.508;7.966;2023-06-22T07:47:17;29.43;;;22.23;;
6105;SDS011;3083;51.508;7.966;2023-06-22T07:49:45;32.03;;;24.40;;
6105;SDS011;3083;51.508;7.966;2023-06-22T07:52:12;29.97;;;21.57;;
6105;SDS011;3083;51.508;7.966;2023-06-22T07:54:39;32.30;;;22.90;;
6105;SDS011;3083;51.508;7.966;2023-06-22T07:57:06;35.93;;;23.00;;
6105;SDS011;3083;51.508;7.966;2023-06-22T07:59:33;29.57;;;24.00;;
6105;SDS011;3083;51.508;7.966;2023-06-22T08:02:00;33.53;;;23.80;;
6105;SDS011;3083;51.508;7.966;2023-06-22T08:04:28;30.87;;;23.20;;
6105;SDS011;3083;51.508;7.966;2023-06-22T08:06:57;33.10;;;23.77;;
6105;SDS011;3083;51.508;7.966;2023-06-22T08:09:24;30.13;;;23.80;;
6105;SDS011;3083;51.508;7.966;2023-06-22T08:11:51;31.33;;;23.10;;
6105;SDS011;3083;51.508;7.966;2023-06-22T08:14:17;28.13;;;22.40;;
6105;SDS011;3083;51.508;7.966;2023-06-22T08:16:44;27.27;;;22.50;;
6105;SDS011;3083;51.508;7.966;2023-06-22T08:19:11;25.67;;;21.83;;
6105;SDS011;3083;51.508;7.966;2023-06-22T08:21:38;26.13;;;22.40;;
6105;SDS011;3083;51.508;7.966;2023-06-22T08:24:06;28.03;;;22.80;;
6105;SDS011;3083;51.508;7.966;2023-06-22T08:26:33;27.77;;;22.70;;
6105;SDS011;3083;51.508;7.966;2023-06-22T08:29:02;26.30;;;22.40;;
6105;SDS011;3083;51.508;7.966;2023-06-22T08:31:29;27.10;;;22.90;;
6105;SDS011;3083;51.508;7.966;2023-06-22T08:33:57;27.73;;;21.30;;
6105;SDS011;3083;51.508;7.966;2023-06-22T08:36:23;25.10;;;21.20;;
6105;SDS011;3083;51.508;7.966;2023-06-22T08:38:54;24.13;;;20.53;;
6105;SDS011;3083;51.508;7.966;2023-06-22T08:41:27;28.03;;;20.63;;
6105;SDS011;3083;51.508;7.966;2023-06-22T08:43:54;24.53;;;21.57;;
6105;SDS011;3083;51.508;7.966;2023-06-22T08:46:22;23.13;;;19.17;;
6105;SDS011;3083;51.508;7.966;2023-06-22T08:48:55;21.60;;;15.47;;
6105;SDS011;3083;51.508;7.966;2023-06-22T08:51:22;21.70;;;17.60;;
6105;SDS011;3083;51.508;7.966;2023-06-22T08:53:48;23.03;;;18.33;;
6105;SDS011;3083;51.508;7.966;2023-06-22T08:56:15;20.57;;;16.17;;
6105;SDS011;3083;51.508;7.966;2023-06-22T08:58:44;17.50;;;14.27;;
6105;SDS011;3083;51.508;7.966;2023-06-22T09:01:11;15.90;;;13.50;;
6105;SDS011;3083;51.508;7.966;2023-06-22T09:03:37;13.50;;;11.80;;
6105;SDS011;3083;51.508;7.966;2023-06-22T09:06:04;13.43;;;10.80;;
6105;SDS011;3083;51.508;7.966;2023-06-22T09:08:31;17.73;;;12.90;;
6105;SDS011;3083;51.508;7.966;2023-06-22T09:10:58;17.60;;;13.70;;
6105;SDS011;3083;51.508;7.966;2023-06-22T09:13:25;15.97;;;13.43;;
6105;SDS011;3083;51.508;7.966;2023-06-22T09:15:53;16.30;;;13.23;;
6105;SDS011;3083;51.508;7.966;2023-06-22T09:18:20;16.80;;;12.93;;
6105;SDS011;3083;51.508;7.966;2023-06-22T09:20:47;17.70;;;15.00;;
6105;SDS011;3083;51.508;7.966;2023-06-22T09:23:14;19.13;;;16.27;;
6105;SDS011;3083;51.508;7.966;2023-06-22T09:25:41;19.90;;;14.50;;
6105;SDS011;3083;51.508;7.966;2023-06-22T09:28:08;15.70;;;14.00;;
6105;SDS011;3083;51.508;7.966;2023-06-22T09:30:35;21.70;;;17.40;;
6105;SDS011;3083;51.508;7.966;2023-06-22T09:33:03;22.90;;;15.67;;
6105;SDS011;3083;51.508;7.966;2023-06-22T09:35:30;20.27;;;16.23;;
6105;SDS011;3083;51.508;7.966;2023-06-22T09:37:57;17.60;;;14.20;;
6105;SDS011;3083;51.508;7.966;2023-06-22T09:40:24;16.60;;;13.30;;
6105;SDS011;3083;51.508;7.966;2023-06-22T09:42:51;17.13;;;13.17;;
6105;SDS011;3083;51.508;7.966;2023-06-22T09:45:17;15.00;;;12.40;;
6105;SDS011;3083;51.508;7.966;2023-06-22T09:47:44;12.60;;;11.20;;
6105;SDS011;3083;51.508;7.966;2023-06-22T09:50:12;10.13;;;8.73;;
6105;SDS011;3083;51.508;7.966;2023-06-22T09:52:39;10.57;;;9.07;;
6105;SDS011;3083;51.508;7.966;2023-06-22T09:55:09;11.23;;;9.20;;
6105;SDS011;3083;51.508;7.966;2023-06-22T09:57:36;10.63;;;8.57;;
6105;SDS011;3083;51.508;7.966;2023-06-22T10:00:03;11.77;;;8.75;;
6105;SDS011;3083;51.508;7.966;2023-06-22T10:02:33;10.53;;;8.33;;
6105;SDS011;3083;51.508;7.966;2023-06-22T10:05:00;11.00;;;9.30;;
6105;SDS011;3083;51.508;7.966;2023-06-22T10:07:28;10.47;;;8.53;;
6105;SDS011;3083;51.508;7.966;2023-06-22T10:09:55;11.10;;;9.10;;
6105;SDS011;3083;51.508;7.966;2023-06-22T10:12:22;10.83;;;8.80;;
6105;SDS011;3083;51.508;7.966;2023-06-22T10:14:49;10.57;;;8.77;;
6105;SDS011;3083;51.508;7.966;2023-06-22T10:17:16;12.77;;;9.47;;
6105;SDS011;3083;51.508;7.966;2023-06-22T10:19:43;10.40;;;8.70;;
6105;SDS011;3083;51.508;7.966;2023-06-22T10:22:09;11.10;;;9.50;;
6105;SDS011;3083;51.508;7.966;2023-06-22T10:24:38;12.07;;;9.70;;
6105;SDS011;3083;51.508;7.966;2023-06-22T10:27:09;12.73;;;10.00;;
6105;SDS011;3083;51.508;7.966;2023-06-22T10:29:37;12.50;;;9.90;;
6105;SDS011;3083;51.508;7.966;2023-06-22T10:32:04;11.87;;;9.80;;
6105;SDS011;3083;51.508;7.966;2023-06-22T10:34:31;14.53;;;10.83;;
6105;SDS011;3083;51.508;7.966;2023-06-22T10:36:58;13.50;;;10.37;;
6105;SDS011;3083;51.508;7.966;2023-06-22T10:39:25;12.77;;;10.13;;
6105;SDS011;3083;51.508;7.966;2023-06-22T10:41:53;13.30;;;10.00;;
6105;SDS011;3083;51.508;7.966;2023-06-22T10:44:21;13.13;;;10.43;;
6105;SDS011;3083;51.508;7.966;2023-06-22T10:46:47;13.07;;;10.37;;
6105;SDS011;3083;51.508;7.966;2023-06-22T10:49:14;13.20;;;10.20;;
6105;SDS011;3083;51.508;7.966;2023-06-22T10:51:41;13.27;;;10.10;;
6105;SDS011;3083;51.508;7.966;2023-06-22T10:54:08;12.33;;;9.83;;
6105;SDS011;3083;51.508;7.966;2023-06-22T10:56:35;12.40;;;9.70;;
6105;SDS011;3083;51.508;7.966;2023-06-22T10:59:03;12.97;;;10.10;;
6105;SDS011;3083;51.508;7.966;2023-06-22T11:01:30;14.90;;;10.30;;
6105;SDS011;3083;51.508;7.966;2023-06-22T11:03:58;11.97;;;9.10;;
6105;SDS011;3083;51.508;7.966;2023-06-22T11:06:25;12.50;;;10.07;;
6105;SDS011;3083;51.508;7.966;2023-06-22T11:08:52;11.20;;;9.30;;
6105;SDS011;3083;51.508;7.966;2023-06-22T11:11:19;12.83;;;9.93;;
6105;SDS011;3083;51.508;7.966;2023-06-22T11:13:45;15.60;;;10.50;;
6105;SDS011;3083;51.508;7.966;2023-06-22T11:16:14;13.10;;;9.23;;
6105;SDS011;3083;51.508;7.966;2023-06-22T11:18:41;11.07;;;9.40;;
6105;SDS011;3083;51.508;7.966;2023-06-22T11:21:08;12.20;;;9.80;;
6105;SDS011;3083;51.508;7.966;2023-06-22T11:23:34;13.03;;;8.90;;
6105;SDS011;3083;51.508;7.966;2023-06-22T11:26:01;14.37;;;9.73;;
6105;SDS011;3083;51.508;7.966;2023-06-22T11:28:28;11.60;;;9.30;;
6105;SDS011;3083;51.508;7.966;2023-06-22T11:30:55;11.93;;;9.73;;
6105;SDS011;3083;51.508;7.966;2023-06-22T11:33:23;13.80;;;10.40;;
6105;SDS011;3083;51.508;7.966;2023-06-22T11:35:51;14.23;;;10.80;;
6105;SDS011;3083;51.508;7.966;2023-06-22T11:38:18;14.63;;;11.13;;
6105;SDS011;3083;51.508;7.966;2023-06-22T11:40:45;15.67;;;12.10;;
6105;SDS011;3083;51.508;7.966;2023-06-22T11:43:11;14.83;;;11.03;;
6105;SDS011;3083;51.508;7.966;2023-06-22T11:45:40;15.43;;;11.90;;
6105;SDS011;3083;51.508;7.966;2023-06-22T11:48:07;16.47;;;13.23;;
6105;SDS011;3083;51.508;7.966;2023-06-22T11:50:35;16.43;;;12.90;;
6105;SDS011;3083;51.508;7.966;2023-06-22T11:53:02;20.50;;;15.23;;
6105;SDS011;3083;51.508;7.966;2023-06-22T11:55:28;18.00;;;13.90;;
6105;SDS011;3083;51.508;7.966;2023-06-22T11:57:56;18.93;;;14.27;;
6105;SDS011;3083;51.508;7.966;2023-06-22T12:00:28;18.93;;;15.67;;
6105;SDS011;3083;51.508;7.966;2023-06-22T12:02:55;20.47;;;15.23;;
6105;SDS011;3083;51.508;7.966;2023-06-22T12:05:22;20.73;;;15.67;;
6105;SDS011;3083;51.508;7.966;2023-06-22T12:07:52;20.03;;;15.83;;
6105;SDS011;3083;51.508;7.966;2023-06-22T12:10:19;25.13;;;16.77;;
6105;SDS011;3083;51.508;7.966;2023-06-22T12:12:46;21.47;;;16.33;;
6105;SDS011;3083;51.508;7.966;2023-06-22T12:15:13;21.60;;;16.27;;
6105;SDS011;3083;51.508;7.966;2023-06-22T12:17:40;21.50;;;16.73;;
6105;SDS011;3083;51.508;7.966;2023-06-22T12:20:08;23.87;;;17.10;;
6105;SDS011;3083;51.508;7.966;2023-06-22T12:22:35;25.00;;;18.43;;
6105;SDS011;3083;51.508;7.966;2023-06-22T12:25:04;24.40;;;18.27;;
6105;SDS011;3083;51.508;7.966;2023-06-22T12:27:32;22.87;;;17.63;;
6105;SDS011;3083;51.508;7.966;2023-06-22T12:29:58;24.63;;;18.50;;
6105;SDS011;3083;51.508;7.966;2023-06-22T12:32:25;24.97;;;18.20;;
6105;SDS011;3083;51.508;7.966;2023-06-22T12:34:52;27.97;;;19.40;;
6105;SDS011;3083;51.508;7.966;2023-06-22T12:37:19;30.53;;;19.70;;
6105;SDS011;3083;51.508;7.966;2023-06-22T12:39:46;31.00;;;19.93;;
6105;SDS011;3083;51.508;7.966;2023-06-22T12:42:14;29.47;;;20.50;;
6105;SDS011;3083;51.508;7.966;2023-06-22T12:44:41;42.80;;;21.10;;
6105;SDS011;3083;51.508;7.966;2023-06-22T12:47:09;33.93;;;21.10;;
6105;SDS011;3083;51.508;7.966;2023-06-22T12:49:36;33.30;;;21.10;;
6105;SDS011;3083;51.508;7.966;2023-06-22T12:52:04;30.20;;;21.63;;
6105;SDS011;3083;51.508;7.966;2023-06-22T12:54:35;30.23;;;21.73;;
6105;SDS011;3083;51.508;7.966;2023-06-22T12:57:02;34.77;;;21.53;;
6105;SDS011;3083;51.508;7.966;2023-06-22T12:59:30;32.20;;;23.30;;
6105;SDS011;3083;51.508;7.966;2023-06-22T13:01:57;30.67;;;22.10;;
6105;SDS011;3083;51.508;7.966;2023-06-22T13:04:24;32.20;;;23.10;;
6105;SDS011;3083;51.508;7.966;2023-06-22T13:06:51;33.97;;;24.03;;
6105;SDS011;3083;51.508;7.966;2023-06-22T13:09:18;34.20;;;22.73;;
6105;SDS011;3083;51.508;7.966;2023-06-22T13:11:45;51.70;;;25.43;;
6105;SDS011;3083;51.508;7.966;2023-06-22T13:14:12;38.97;;;26.27;;
6105;SDS011;3083;51.508;7.966;2023-06-22T13:16:42;34.03;;;22.60;;
6105;SDS011;3083;51.508;7.966;2023-06-22T13:19:09;27.73;;;14.93;;
6105;SDS011;3083;51.508;7.966;2023-06-22T13:21:36;20.70;;;12.57;;
6105;SDS011;3083;51.508;7.966;2023-06-22T13:24:03;19.27;;;10.20;;
6105;SDS011;3083;51.508;7.966;2023-06-22T13:26:31;22.50;;;10.57;;
6105;SDS011;3083;51.508;7.966;2023-06-22T13:28:58;33.90;;;11.37;;
6105;SDS011;3083;51.508;7.966;2023-06-22T13:31:25;19.43;;;13.30;;
6105;SDS011;3083;51.508;7.966;2023-06-22T13:33:53;22.60;;;16.33;;
6105;SDS011;3083;51.508;7.966;2023-06-22T13:36:20;27.80;;;18.13;;
6105;SDS011;3083;51.508;7.966;2023-06-22T13:38:48;29.57;;;19.27;;
6105;SDS011;3083;51.508;7.966;2023-06-22T13:41:15;29.27;;;19.73;;
6105;SDS011;3083;51.508;7.966;2023-06-22T13:43:42;30.60;;;21.63;;
6105;SDS011;3083;51.508;7.966;2023-06-22T13:46:08;26.83;;;19.10;;
6105;SDS011;3083;51.508;7.966;2023-06-22T13:48:35;32.67;;;23.30;;
6105;SDS011;3083;51.508;7.966;2023-06-22T13:51:03;32.20;;;21.07;;
6105;SDS011;3083;51.508;7.966;2023-06-22T13:53:31;32.63;;;22.93;;
6105;SDS011;3083;51.508;7.966;2023-06-22T13:55:58;37.20;;;23.50;;
6105;SDS011;3083;51.508;7.966;2023-06-22T13:58:24;34.63;;;22.47;;
6105;SDS011;3083;51.508;7.966;2023-06-22T14:00:51;32.07;;;22.73;;
6105;SDS011;3083;51.508;7.966;2023-06-22T14:03:18;28.57;;;19.30;;
6105;SDS011;3083;51.508;7.966;2023-06-22T14:05:45;27.80;;;19.80;;
6105;SDS011;3083;51.508;7.966;2023-06-22T14:08:13;28.03;;;20.40;;
6105;SDS011;3083;51.508;7.966;2023-06-22T14:10:40;21.03;;;16.30;;
6105;SDS011;3083;51.508;7.966;2023-06-22T14:13:07;18.13;;;14.77;;
6105;SDS011;3083;51.508;7.966;2023-06-22T14:15:33;18.87;;;15.37;;
6105;SDS011;3083;51.508;7.966;2023-06-22T14:18:00;20.37;;;15.23;;
6105;SDS011;3083;51.508;7.966;2023-06-22T14:20:27;21.63;;;16.57;;
6105;SDS011;3083;51.508;7.966;2023-06-22T14:22:54;21.93;;;17.70;;
6105;SDS011;3083;51.508;7.966;2023-06-22T14:25:22;21.60;;;16.40;;
6105;SDS011;3083;51.508;7.966;2023-06-22T14:27:49;29.00;;;20.13;;
6105;SDS011;3083;51.508;7.966;2023-06-22T14:30:16;28.00;;;18.97;;
6105;SDS011;3083;51.508;7.966;2023-06-22T14:32:43;26.83;;;18.17;;
6105;SDS011;3083;51.508;7.966;2023-06-22T14:35:10;20.03;;;16.60;;
6105;SDS011;3083;51.508;7.966;2023-06-22T14:37:37;23.90;;;17.77;;
6105;SDS011;3083;51.508;7.966;2023-06-22T14:40:04;19.30;;;15.50;;
6105;SDS011;3083;51.508;7.966;2023-06-22T14:42:33;20.27;;;15.90;;
6105;SDS011;3083;51.508;7.966;2023-06-22T14:45:00;19.90;;;16.00;;
6105;SDS011;3083;51.508;7.966;2023-06-22T14:47:27;18.67;;;15.23;;
6105;SDS011;3083;51.508;7.966;2023-06-22T14:49:54;21.90;;;16.23;;